Time;durP1;ratioP1;P1;durP2;ratioP2;P2;SDS_P1;SDS_P2;PMS_P1;PMS_P2;Temp;Humidity;BMP_temperature;BMP_pressure;BME280_temperature;BME280_humidity;BME280_pressure;Samples;Min_cycle;Max_cycle;Signal;HPM_P1;HPM_P2
2022/07/20 00:02:10;;;;;;;4.30;3.23;;;;;;;20.03;57.36;95451.72;5055829;28;20444;-81
2022/07/20 00:04:38;;;;;;;3.53;3.20;;;;;;;20.01;57.59;95453.72;5073726;28;20936;-85
2022/07/20 00:07:05;;;;;;;4.30;2.80;;;;;;;20.04;57.38;95450.72;5073957;28;20452;-81
2022/07/20 00:12:16;;;;;;;3.37;3.07;;;;;;;20.04;57.41;95448.06;5074223;28;20798;-82
2022/07/20 00:14:43;;;;;;;2.40;2.20;;;;;;;19.89;58.09;95441.78;5074157;28;20472;-81
2022/07/20 00:17:10;;;;;;;3.53;3.23;;;;;;;19.70;58.78;95435.06;5074131;28;20445;-81
2022/07/20 00:19:38;;;;;;;3.20;2.90;;;;;;;19.58;59.83;95439.09;5074045;28;20429;-81
2022/07/20 00:22:04;;;;;;;6.53;2.93;;;;;;;19.61;59.70;95425.44;5073810;28;20449;-80
2022/07/20 00:24:31;;;;;;;3.43;3.13;;;;;;;19.53;60.33;95430.75;5073866;28;20445;-79
2022/07/20 00:26:58;;;;;;;3.90;2.97;;;;;;;19.56;60.21;95428.59;5073410;28;20951;-80
2022/07/20 00:29:25;;;;;;;2.90;2.70;;;;;;;19.55;60.52;95420.78;5073710;28;20444;-80
2022/07/20 00:31:52;;;;;;;4.90;3.07;;;;;;;19.58;60.79;95417.78;5074010;28;20452;-81
2022/07/20 00:34:19;;;;;;;7.60;3.30;;;;;;;19.58;60.85;95415.94;5073496;28;20534;-81
2022/07/20 00:36:47;;;;;;;3.37;3.07;;;;;;;19.59;60.90;95420.28;5054878;28;20849;-82
2022/07/20 00:39:14;;;;;;;3.40;3.20;;;;;;;19.70;60.88;95427.91;5073550;28;20456;-81
2022/07/20 00:41:40;;;;;;;3.30;3.00;;;;;;;19.76;60.70;95423.72;5073351;28;20441;-81
2022/07/20 00:44:09;;;;;;;3.67;3.10;;;;;;;19.78;60.59;95424.38;5073338;28;20457;-82
2022/07/20 00:46:38;;;;;;;2.90;2.70;;;;;;;19.73;60.73;95427.56;5073459;28;20436;-81
2022/07/20 00:49:06;;;;;;;3.60;3.30;;;;;;;19.60;60.68;95435.25;5073446;28;20472;-81
2022/07/20 00:51:33;;;;;;;3.77;3.10;;;;;;;19.65;60.64;95430.22;5073285;28;20444;-80
2022/07/20 00:54:04;;;;;;;3.87;3.40;;;;;;;19.65;60.63;95430.22;5073235;28;20480;-80
2022/07/20 00:56:31;;;;;;;3.00;2.70;;;;;;;19.73;60.54;95438.22;5073712;28;20441;-80
2022/07/20 00:58:58;;;;;;;3.50;3.20;;;;;;;19.73;60.62;95432.88;5073376;28;20445;-80
2022/07/20 01:01:25;;;;;;;5.33;3.60;;;;;;;19.79;60.60;95442.84;5073735;28;20494;-81
2022/07/20 01:03:51;;;;;;;6.93;3.70;;;;;;;19.76;60.10;95437.84;5073279;28;20452;-82
2022/07/20 01:06:19;;;;;;;3.80;3.50;;;;;;;19.69;60.62;95436.91;5073115;28;20452;-81
2022/07/20 01:08:48;;;;;;;3.73;3.43;;;;;;;19.64;60.78;95436.56;5073168;28;20445;-82
2022/07/20 01:11:16;;;;;;;5.20;3.57;;;;;;;19.65;61.00;95435.56;5072903;28;20453;-78
2022/07/20 01:13:43;;;;;;;3.10;2.90;;;;;;;19.73;61.48;95432.88;5054026;28;20499;-82
2022/07/20 01:16:10;;;;;;;3.97;3.67;;;;;;;19.72;60.97;95433.88;5073060;28;20445;-83
2022/07/20 01:18:37;;;;;;;4.00;3.60;;;;;;;19.50;61.47;95427.44;5073573;28;20829;-83
2022/07/20 01:21:07;;;;;;;3.70;3.40;;;;;;;19.50;61.26;95416.78;5073137;28;20814;-83
2022/07/20 01:23:34;;;;;;;4.13;3.10;;;;;;;19.55;62.25;95426.94;5021480;28;20452;-83
2022/07/20 01:26:02;;;;;;;4.10;3.70;;;;;;;19.63;62.16;95429.56;5073244;28;20453;-81
2022/07/20 01:28:29;;;;;;;3.13;2.83;;;;;;;19.65;61.79;95424.91;5072882;28;20456;-82
2022/07/20 01:30:56;;;;;;;3.57;3.00;;;;;;;19.58;61.69;95423.09;5072986;28;20925;-81
2022/07/20 01:33:23;;;;;;;5.00;3.07;;;;;;;19.43;61.69;95428.31;5054134;28;20483;-79
2022/07/20 01:35:50;;;;;;;3.40;3.10;;;;;;;19.30;62.15;95426.16;5073310;28;20911;-81
2022/07/20 01:38:18;;;;;;;4.07;3.03;;;;;;;19.24;62.25;95420.69;5073390;28;20444;-80
2022/07/20 01:40:45;;;;;;;3.53;3.23;;;;;;;19.21;62.33;95423.69;5072725;28;20456;-80
2022/07/20 01:43:12;;;;;;;3.60;3.30;;;;;;;19.08;62.68;95421.53;5071932;28;20449;-81
2022/07/20 01:45:39;;;;;;;3.93;3.57;;;;;;;19.13;62.60;95413.91;5071716;28;20441;-81
2022/07/20 01:48:06;;;;;;;4.40;4.10;;;;;;;19.03;63.16;95422.06;5072203;28;20819;-80
2022/07/20 01:50:33;;;;;;;3.60;3.30;;;;;;;19.04;62.85;95407.75;5073009;28;20820;-80
2022/07/20 01:53:00;;;;;;;4.20;3.83;;;;;;;18.94;63.16;95414.25;5072890;28;20495;-80
2022/07/20 01:55:28;;;;;;;2.90;2.70;;;;;;;18.80;63.66;95421.13;5072867;28;20441;-82
2022/07/20 01:57:55;;;;;;;2.90;2.70;;;;;;;18.72;63.87;95410.47;5073164;28;20445;-79
2022/07/20 02:00:23;;;;;;;3.40;3.10;;;;;;;18.76;63.55;95423.25;5072727;28;20964;-81
2022/07/20 02:02:50;;;;;;;3.40;3.20;;;;;;;18.72;63.82;95418.44;5072708;28;20456;-80
2022/07/20 02:05:17;;;;;;;3.83;3.50;;;;;;;18.76;63.52;95422.41;5072455;28;20985;-80
2022/07/20 02:07:46;;;;;;;3.20;2.90;;;;;;;18.73;63.74;95428.06;5072778;28;20444;-80
2022/07/20 02:10:16;;;;;;;4.57;3.47;;;;;;;18.75;63.62;95426.06;5072606;28;20506;-82
2022/07/20 02:12:44;;;;;;;4.00;2.83;;;;;;;18.80;62.97;95435.22;5072542;28;20511;-82
2022/07/20 02:16:14;;;;;;;3.17;2.80;;;;;;;18.87;62.83;95440.72;5073169;28;20484;-82
2022/07/20 02:18:00;;;;;;;3.20;2.97;;;;;;;18.89;63.11;95430.72;5076533;28;20441;-81
2022/07/20 02:20:27;;;;;;;3.33;3.10;;;;;;;18.93;62.73;95432.06;5076182;28;20440;-82
2022/07/20 02:22:53;;;;;;;3.00;2.80;;;;;;;18.92;62.69;95426.91;5057442;28;20445;-81
2022/07/20 02:25:20;;;;;;;2.83;2.63;;;;;;;19.03;62.41;95431.88;5040879;28;20441;-82
2022/07/20 02:27:48;;;;;;;2.87;2.63;;;;;;;19.04;62.24;95431.69;5075830;28;20441;-80
2022/07/20 02:30:15;;;;;;;3.83;2.87;;;;;;;19.09;61.99;95434.72;5076149;28;20506;-82
2022/07/20 02:32:42;;;;;;;7.93;2.93;;;;;;;19.18;62.08;95433.69;5076001;28;20445;-81
2022/07/20 02:35:09;;;;;;;3.57;3.10;;;;;;;19.24;62.23;95432.16;5075899;28;20484;-82
2022/07/20 02:37:36;;;;;;;2.70;2.50;;;;;;;19.31;62.49;95435.81;5075909;28;20452;-82
2022/07/20 02:40:03;;;;;;;9.23;2.93;;;;;;;19.32;62.48;95434.81;5076088;28;20425;-82
2022/07/20 02:42:30;;;;;;;3.13;2.60;;;;;;;19.35;62.89;95434.47;5057368;28;20444;-81
2022/07/20 02:44:58;;;;;;;2.90;2.70;;;;;;;19.29;63.02;95432.47;5076041;28;20793;-82
2022/07/20 02:47:25;;;;;;;8.23;3.33;;;;;;;19.27;62.96;95437.16;5075227;28;20868;-82
2022/07/20 02:49:52;;;;;;;3.27;3.03;;;;;;;19.19;63.25;95445.16;5074701;28;20527;-82
2022/07/20 02:52:19;;;;;;;7.00;3.03;;;;;;;19.11;63.28;95432.72;5074682;28;20441;-84
2022/07/20 02:54:45;;;;;;;3.27;3.07;;;;;;;19.03;64.12;95437.19;5074356;28;20491;-82
2022/07/20 02:57:12;;;;;;;3.30;3.00;;;;;;;18.94;63.89;95436.38;5074496;28;20448;-83
2022/07/20 02:59:39;;;;;;;3.27;2.93;;;;;;;18.89;64.15;95444.03;5055375;28;20445;-83
2022/07/20 03:02:07;;;;;;;4.60;3.33;;;;;;;18.79;64.42;95451.31;5073980;28;20449;-82
2022/07/20 03:04:34;;;;;;;4.70;4.40;;;;;;;18.71;65.11;95443.34;5075406;28;20448;-82
2022/07/20 03:07:01;;;;;;;3.30;3.10;;;;;;;18.80;66.77;95439.72;5075314;28;20449;-79
2022/07/20 03:09:27;;;;;;;3.90;3.60;;;;;;;18.90;66.68;95442.19;5074767;28;20504;-80
2022/07/20 03:11:54;;;;;;;3.77;3.00;;;;;;;19.01;64.50;95441.84;5074853;28;20472;-79
2022/07/20 03:14:21;;;;;;;3.77;3.47;;;;;;;19.03;64.01;95446.00;5055802;28;20485;-81
2022/07/20 03:16:51;;;;;;;3.30;3.10;;;;;;;19.01;64.05;95447.16;5074919;28;20453;-82
2022/07/20 03:19:19;;;;;;;19.83;4.63;;;;;;;18.94;64.23;95447.00;5055281;28;21032;-83
2022/07/20 03:21:46;;;;;;;4.87;2.90;;;;;;;18.93;64.02;95448.00;5074585;28;20457;-82
2022/07/20 03:24:13;;;;;;;6.33;3.97;;;;;;;18.91;63.78;95451.84;5074709;28;20943;-82
2022/07/20 03:26:39;;;;;;;6.70;3.13;;;;;;;18.94;64.02;95457.66;5055245;28;20514;-81
2022/07/20 03:29:06;;;;;;;3.33;3.03;;;;;;;18.96;63.99;95463.63;5074838;28;20467;-79
2022/07/20 03:31:33;;;;;;;3.10;2.87;;;;;;;19.08;63.75;95467.63;5039323;28;20444;-80
2022/07/20 03:34:00;;;;;;;8.80;2.93;;;;;;;19.30;62.60;95470.56;5075136;28;20492;-82
2022/07/20 03:36:28;;;;;;;3.87;3.30;;;;;;;19.54;61.82;95469.72;5075001;28;20509;-83
2022/07/20 03:38:55;;;;;;;3.33;3.03;;;;;;;19.82;61.09;95470.13;5074638;28;20471;-82
2022/07/20 03:41:22;;;;;;;4.97;3.20;;;;;;;20.20;59.90;95463.09;5074375;28;20449;-84
2022/07/20 03:43:49;;;;;;;10.23;3.20;;;;;;;20.37;58.79;95473.50;5074212;28;20970;-82
2022/07/20 03:46:17;;;;;;;4.90;3.20;;;;;;;20.35;58.83;95470.19;5074624;28;20449;-82
2022/07/20 03:48:44;;;;;;;2.73;2.53;;;;;;;20.26;58.93;95481.91;5074262;28;20453;-85
2022/07/20 03:51:11;;;;;;;7.93;3.50;;;;;;;20.18;59.17;95481.94;5074776;28;20540;-82
2022/07/20 03:53:39;;;;;;;6.30;3.47;;;;;;;20.29;58.64;95483.41;5073934;28;21135;-79
2022/07/20 03:56:07;;;;;;;3.50;2.73;;;;;;;20.57;57.78;95478.44;5074601;28;20452;-78
2022/07/20 03:58:33;;;;;;;3.47;3.20;;;;;;;20.90;56.61;95477.19;5073919;28;20522;-83
2022/07/20 04:01:00;;;;;;;2.93;2.73;;;;;;;21.23;55.65;95483.09;5073996;28;20920;-81
2022/07/20 04:03:27;;;;;;;2.97;2.77;;;;;;;21.59;54.82;95485.91;5073396;28;20453;-81
2022/07/20 04:05:54;;;;;;;5.40;3.10;;;;;;;21.98;53.52;95484.81;5073526;28;21154;-82
2022/07/20 04:08:21;;;;;;;5.20;2.73;;;;;;;22.27;52.14;95480.47;5073991;28;20441;-80
2022/07/20 04:10:49;;;;;;;4.47;3.07;;;;;;;22.47;51.29;95481.50;5038744;28;20452;-81
2022/07/20 04:13:16;;;;;;;3.87;2.73;;;;;;;22.62;50.88;95482.28;5073718;28;20491;-83
2022/07/20 04:15:42;;;;;;;3.40;3.20;;;;;;;22.77;50.55;95479.56;5073722;28;20967;-82
2022/07/20 04:18:09;;;;;;;13.90;3.00;;;;;;;22.97;50.01;95487.81;5073817;28;20476;-81
2022/07/20 04:20:36;;;;;;;3.60;3.30;;;;;;;23.12;49.62;95484.03;5073016;28;20452;-81
2022/07/20 04:23:03;;;;;;;3.40;3.10;;;;;;;23.26;49.07;95479.63;5073736;28;20491;-83
2022/07/20 04:25:30;;;;;;;3.10;2.80;;;;;;;23.38;48.57;95483.41;5073582;28;20456;-83
2022/07/20 04:27:58;;;;;;;3.17;2.97;;;;;;;23.57;48.17;95486.47;5073418;28;20946;-81
2022/07/20 04:30:25;;;;;;;3.57;2.60;;;;;;;23.71;47.59;95489.06;5073649;28;20801;-82
2022/07/20 04:32:52;;;;;;;3.77;2.80;;;;;;;23.80;47.54;95481.69;5073625;28;20514;-82
2022/07/20 04:35:20;;;;;;;3.20;2.90;;;;;;;23.70;47.56;95481.19;5073689;28;20488;-82
2022/07/20 04:37:46;;;;;;;2.83;2.63;;;;;;;23.74;47.30;95487.84;5073777;28;20502;-81
2022/07/20 04:40:13;;;;;;;4.17;3.03;;;;;;;23.69;47.75;95484.91;5038005;28;20453;-81
2022/07/20 04:42:40;;;;;;;2.90;2.70;;;;;;;23.70;47.83;95487.38;5073403;28;20467;-82
2022/07/20 04:45:10;;;;;;;4.87;3.20;;;;;;;23.90;47.72;95487.50;5073360;28;20448;-81
2022/07/20 04:47:37;;;;;;;3.23;2.93;;;;;;;24.12;47.80;95498.16;5073533;28;20452;-82
2022/07/20 04:50:04;;;;;;;3.93;3.47;;;;;;;24.47;47.09;95496.25;5073505;28;20451;-80
2022/07/20 04:52:31;;;;;;;4.80;3.00;;;;;;;24.73;46.17;95493.66;5038174;28;20445;-82
2022/07/20 04:54:58;;;;;;;6.37;3.43;;;;;;;24.94;46.03;95495.34;5073828;28;21025;-81
2022/07/20 04:57:25;;;;;;;12.40;3.23;;;;;;;25.10;45.73;95499.53;5073375;28;20444;-82
2022/07/20 04:59:52;;;;;;;4.23;2.50;;;;;;;25.29;45.29;95494.19;5073831;28;20451;-82
2022/07/20 05:02:20;;;;;;;4.70;3.60;;;;;;;25.49;44.71;95507.63;5073132;28;20923;-81
2022/07/20 05:04:47;;;;;;;2.87;2.67;;;;;;;25.55;45.02;95501.41;5073359;28;20857;-81
2022/07/20 05:07:14;;;;;;;2.80;2.60;;;;;;;25.74;44.87;95507.84;5073167;28;20507;-83
2022/07/20 05:09:41;;;;;;;5.27;3.43;;;;;;;25.94;44.67;95507.78;5073218;28;20448;-83
2022/07/20 05:12:08;;;;;;;3.30;2.93;;;;;;;26.16;44.88;95500.28;5073242;28;20465;-82
2022/07/20 05:14:35;;;;;;;3.70;3.40;;;;;;;26.47;44.50;95502.28;5037050;28;20484;-80
2022/07/20 05:17:02;;;;;;;6.00;3.13;;;;;;;26.72;43.37;95505.91;5073067;28;20502;-83
2022/07/20 05:19:30;;;;;;;8.03;3.63;;;;;;;26.86;42.73;95502.06;5073239;28;20506;-83
2022/07/20 05:21:57;;;;;;;5.37;3.03;;;;;;;26.99;43.19;95509.28;5072785;28;20444;-80
2022/07/20 05:24:24;;;;;;;6.30;3.23;;;;;;;26.77;42.26;95511.47;5072576;28;20549;-80
2022/07/20 05:26:51;;;;;;;5.00;2.80;;;;;;;26.98;43.13;95515.69;5073092;28;20441;-85
2022/07/20 05:29:18;;;;;;;6.10;3.60;;;;;;;27.02;42.39;95510.72;5037267;28;20448;-81
2022/07/20 05:31:45;;;;;;;6.70;4.33;;;;;;;26.93;42.12;95520.91;5054259;28;20499;-81
2022/07/20 05:34:12;;;;;;;4.70;3.10;;;;;;;27.00;43.16;95510.94;5072805;28;20864;-83
2022/07/20 05:36:40;;;;;;;8.17;3.73;;;;;;;27.00;42.64;95505.56;5072723;28;20437;-81
2022/07/20 05:39:09;;;;;;;5.70;3.50;;;;;;;27.16;42.14;95517.66;5072796;28;20455;-83
2022/07/20 05:41:36;;;;;;;5.87;3.47;;;;;;;27.28;42.41;95515.13;5064505;28;20442;-83
2022/07/20 05:44:03;;;;;;;7.80;3.60;;;;;;;27.44;41.69;95511.88;5071383;28;20445;-82
2022/07/20 05:46:30;;;;;;;9.13;4.43;;;;;;;27.50;41.25;95508.31;5070677;28;20499;-81
2022/07/20 05:48:57;;;;;;;5.43;4.00;;;;;;;27.69;40.72;95507.34;5062583;28;20445;-84
2022/07/20 05:51:23;;;;;;;11.00;4.13;;;;;;;27.93;40.58;95510.22;5052113;28;20535;-82
2022/07/20 05:53:52;;;;;;;7.63;3.60;;;;;;;28.05;40.02;95511.16;5076483;28;20464;-82
2022/07/20 05:56:18;;;;;;;6.50;3.67;;;;;;;28.06;39.52;95508.25;5072661;28;20484;-81
2022/07/20 05:58:45;;;;;;;4.90;3.60;;;;;;;27.71;39.38;95499.00;5062999;28;20802;-81
2022/07/20 06:01:12;;;;;;;6.63;3.13;;;;;;;27.59;38.49;95506.16;5076419;28;20445;-83
2022/07/20 06:03:39;;;;;;;4.63;3.33;;;;;;;27.58;40.59;95505.34;5075371;28;20445;-83
2022/07/20 06:06:06;;;;;;;13.00;3.60;;;;;;;27.67;40.49;95505.91;5056026;28;20916;-81
2022/07/20 06:08:33;;;;;;;3.93;3.20;;;;;;;27.89;39.85;95506.34;5054086;28;20449;-82
2022/07/20 06:11:01;;;;;;;5.40;3.27;;;;;;;28.04;39.35;95513.00;5054232;28;20529;-83
2022/07/20 06:13:28;;;;;;;6.03;3.27;;;;;;;28.29;39.60;95512.16;5056222;28;20508;-82
2022/07/20 06:15:55;;;;;;;8.53;4.27;;;;;;;28.61;39.08;95512.81;5055123;28;20493;-84
2022/07/20 06:18:22;;;;;;;8.27;3.70;;;;;;;28.90;37.97;95513.91;5071212;28;20444;-83
2022/07/20 06:20:49;;;;;;;9.90;4.20;;;;;;;29.06;38.67;95512.47;5074360;28;20926;-83
2022/07/20 06:23:16;;;;;;;12.93;3.37;;;;;;;29.16;38.38;95518.94;5074580;28;20445;-82
2022/07/20 06:25:43;;;;;;;4.30;3.53;;;;;;;29.15;38.70;95505.66;5074945;28;20518;-82
2022/07/20 06:28:11;;;;;;;8.83;4.07;;;;;;;29.16;36.96;95518.13;5074344;28;20451;-82
2022/07/20 06:30:38;;;;;;;6.63;3.83;;;;;;;29.27;36.99;95512.78;5073720;28;20445;-86
2022/07/20 06:33:05;;;;;;;3.87;3.57;;;;;;;29.32;36.32;95513.94;5038900;28;20818;-84
2022/07/20 06:35:31;;;;;;;8.10;3.60;;;;;;;29.36;35.89;95513.25;5074359;28;20492;-83
2022/07/20 06:37:58;;;;;;;4.87;2.83;;;;;;;29.43;35.99;95513.13;5038569;28;20449;-83
2022/07/20 06:40:25;;;;;;;5.20;3.40;;;;;;;29.30;35.92;95508.78;5074272;28;20448;-83
2022/07/20 06:42:52;;;;;;;10.67;4.80;;;;;;;29.19;36.68;95502.25;5074546;28;20471;-81
2022/07/20 06:45:20;;;;;;;9.80;5.43;;;;;;;28.90;38.44;95495.00;5075042;28;20443;-82
2022/07/20 06:47:49;;;;;;;5.53;3.87;;;;;;;28.73;38.12;95493.97;5038380;28;20448;-82
2022/07/20 06:50:16;;;;;;;8.13;3.90;;;;;;;28.80;38.46;95497.41;5074322;28;20447;-82
2022/07/20 06:52:43;;;;;;;8.50;4.03;;;;;;;28.76;38.71;95488.13;5073565;28;20519;-82
2022/07/20 06:55:10;;;;;;;11.47;4.67;;;;;;;28.89;38.59;95496.06;5064454;28;20571;-82
2022/07/20 06:57:37;;;;;;;14.37;4.40;;;;;;;28.98;38.39;95484.72;5073562;28;20433;-83
2022/07/20 07:00:05;;;;;;;7.23;4.57;;;;;;;29.28;38.69;95486.56;5073666;28;20851;-79
2022/07/20 07:02:34;;;;;;;6.70;4.77;;;;;;;29.46;37.99;95501.88;5038239;28;20494;-82
2022/07/20 07:05:00;;;;;;;11.07;3.83;;;;;;;29.70;37.37;95486.50;5073947;28;20444;-82
2022/07/20 07:07:27;;;;;;;9.27;4.13;;;;;;;29.96;37.69;95488.75;5038713;28;20436;-84
2022/07/20 07:09:54;;;;;;;6.87;3.50;;;;;;;30.10;36.54;95484.78;5054849;28;20826;-82
2022/07/20 07:12:21;;;;;;;7.57;3.93;;;;;;;30.22;37.69;95479.34;5073577;28;20927;-83
2022/07/20 07:14:48;;;;;;;5.60;5.10;;;;;;;30.41;36.95;95485.44;5038144;28;20503;-84
2022/07/20 07:17:15;;;;;;;7.20;3.97;;;;;;;30.37;36.14;95482.38;5073418;28;20449;-83
2022/07/20 07:19:43;;;;;;;4.60;3.80;;;;;;;30.47;36.85;95485.28;5073941;28;20445;-85
2022/07/20 07:22:10;;;;;;;9.20;4.87;;;;;;;30.11;35.07;95480.19;5072841;28;20447;-83
2022/07/20 07:24:37;;;;;;;12.90;5.00;;;;;;;30.19;35.48;95485.22;5072805;28;20456;-83
2022/07/20 07:27:04;;;;;;;6.50;3.93;;;;;;;30.15;36.22;95484.88;5072266;28;20452;-84
2022/07/20 07:29:31;;;;;;;6.00;4.73;;;;;;;30.16;36.11;95481.13;5038171;28;20459;-82
2022/07/20 07:31:58;;;;;;;5.37;4.50;;;;;;;30.24;34.91;95484.50;5073005;28;20818;-83
2022/07/20 07:34:25;;;;;;;6.70;4.23;;;;;;;30.34;35.11;95482.00;5073144;28;20443;-83
2022/07/20 07:36:54;;;;;;;6.77;4.37;;;;;;;30.40;35.81;95470.25;5072073;28;20503;-83
2022/07/20 07:39:20;;;;;;;6.97;4.90;;;;;;;30.51;35.75;95483.75;5073236;28;20467;-84
2022/07/20 07:41:47;;;;;;;9.60;4.33;;;;;;;30.40;36.72;95481.91;5037224;28;20464;-82
2022/07/20 07:44:14;;;;;;;8.47;6.63;;;;;;;30.16;35.17;95481.13;5071669;28;20457;-82
2022/07/20 07:46:41;;;;;;;11.47;6.40;;;;;;;29.60;37.16;95482.50;5072568;28;20807;-81
2022/07/20 07:49:08;;;;;;;7.83;4.80;;;;;;;29.80;37.81;95468.66;5073074;28;20453;-82
2022/07/20 07:51:35;;;;;;;7.70;5.00;;;;;;;29.82;36.90;95473.81;5071480;28;20456;-84
2022/07/20 07:54:03;;;;;;;11.13;5.17;;;;;;;29.84;35.68;95477.13;5072053;28;20468;-83
2022/07/20 07:56:30;;;;;;;9.10;5.57;;;;;;;29.89;36.28;95472.63;5072981;28;20488;-82
2022/07/20 07:58:57;;;;;;;8.60;4.97;;;;;;;29.95;35.43;95478.16;5072758;28;20494;-84
2022/07/20 08:01:24;;;;;;;8.53;4.90;;;;;;;30.07;33.87;95476.28;5072673;28;20444;-82
2022/07/20 08:03:51;;;;;;;7.80;4.77;;;;;;;30.20;34.12;95470.63;5073042;28;20920;-83
2022/07/20 08:06:18;;;;;;;11.93;4.43;;;;;;;30.06;32.75;95463.81;5072117;28;20486;-82
2022/07/20 08:08:44;;;;;;;9.77;4.97;;;;;;;30.16;33.33;95467.59;5072230;28;20805;-84
2022/07/20 08:11:13;;;;;;;12.43;4.93;;;;;;;30.39;33.34;95466.72;5072317;28;20444;-82
2022/07/20 08:13:40;;;;;;;6.67;4.43;;;;;;;30.53;33.11;95459.94;5070562;28;20468;-82
2022/07/20 08:16:07;;;;;;;10.53;5.10;;;;;;;30.65;33.04;95456.41;5072860;28;20484;-84
2022/07/20 08:18:34;;;;;;;10.93;4.30;;;;;;;30.71;33.06;95461.69;5072762;28;20464;-82
2022/07/20 08:21:01;;;;;;;9.30;4.50;;;;;;;30.62;34.17;95456.88;5072099;28;20920;-82
2022/07/20 08:23:27;;;;;;;5.40;3.90;;;;;;;30.66;32.44;95458.88;5071253;28;20547;-79
2022/07/20 08:25:54;;;;;;;9.20;4.17;;;;;;;30.69;31.19;95452.97;5070824;28;20464;-82
2022/07/20 08:28:23;;;;;;;7.03;3.80;;;;;;;30.82;29.95;95447.25;5071985;28;20697;-81
2022/07/20 08:30:52;;;;;;;7.10;3.53;;;;;;;31.00;30.60;95461.69;5071333;28;20444;-82
2022/07/20 08:33:19;;;;;;;7.10;4.70;;;;;;;31.21;31.43;95454.75;5052512;28;20451;-81
2022/07/20 08:35:46;;;;;;;6.57;3.83;;;;;;;31.30;30.13;95445.97;5036055;28;20545;-82
2022/07/20 08:38:13;;;;;;;6.87;3.93;;;;;;;31.17;30.87;95446.28;5073023;28;20460;-79
2022/07/20 08:40:40;;;;;;;7.77;3.93;;;;;;;31.28;32.03;95444.56;5053916;28;20449;-80
2022/07/20 08:43:07;;;;;;;6.17;4.17;;;;;;;31.31;32.00;95442.19;5073861;28;20476;-82
2022/07/20 08:45:36;;;;;;;4.30;3.60;;;;;;;31.31;30.75;95436.75;5073501;28;20509;-82
2022/07/20 08:48:07;;;;;;;4.50;4.10;;;;;;;31.29;31.14;95440.78;5073438;28;20475;-83
2022/07/20 08:50:35;;;;;;;3.63;3.07;;;;;;;31.22;29.69;95445.53;5072987;28;20506;-83
2022/07/20 08:53:02;;;;;;;3.13;2.93;;;;;;;31.19;30.91;95433.28;5053814;28;20430;-81
2022/07/20 08:55:30;;;;;;;2.87;2.67;;;;;;;30.95;29.88;95435.31;5053232;28;20461;-83
2022/07/20 08:57:57;;;;;;;4.23;2.40;;;;;;;30.74;30.63;95438.72;5053430;28;20441;-82
2022/07/20 09:00:24;;;;;;;4.33;2.97;;;;;;;30.70;30.69;95432.13;5060041;28;20453;-82
2022/07/20 09:02:54;;;;;;;5.97;2.70;;;;;;;30.62;31.92;95425.19;5072555;28;20452;-79
2022/07/20 09:05:22;;;;;;;5.67;2.60;;;;;;;30.89;31.13;95436.25;5072836;28;20445;-79
2022/07/20 09:07:51;;;;;;;3.43;3.10;;;;;;;30.32;29.33;95432.69;5072809;28;20456;-78
2022/07/20 09:10:20;;;;;;;2.87;2.67;;;;;;;30.13;29.53;95426.63;5072879;28;20825;-79
2022/07/20 09:12:59;;;;;;;4.93;3.03;;;;;;;30.28;31.62;95431.53;5072944;28;20864;-80
2022/07/20 09:15:32;;;;;;;3.07;2.87;;;;;;;30.12;30.02;95435.81;5073006;28;20480;-78
2022/07/20 09:18:09;;;;;;;2.57;2.37;;;;;;;30.16;30.83;95426.97;5072359;28;20449;-79
2022/07/20 09:20:38;;;;;;;3.00;2.60;;;;;;;30.37;29.71;95424.69;5073026;28;20470;-79
2022/07/20 09:23:08;;;;;;;3.73;2.73;;;;;;;30.53;31.01;95421.19;5072335;28;20457;-78
2022/07/20 09:25:35;;;;;;;2.90;2.47;;;;;;;29.43;29.17;95424.72;5074543;28;20502;-78
2022/07/20 09:28:02;;;;;;;3.30;2.90;;;;;;;29.47;32.38;95428.63;5076852;28;20455;-79
2022/07/20 09:30:29;;;;;;;6.80;2.70;;;;;;;29.21;31.79;95427.19;5041521;28;20445;-79
2022/07/20 09:32:59;;;;;;;2.97;2.73;;;;;;;29.15;31.16;95413.75;5077051;28;20447;-77
2022/07/20 09:35:30;;;;;;;5.80;2.77;;;;;;;29.45;31.48;95414.53;5076432;28;20930;-79
2022/07/20 09:38:04;;;;;;;12.43;3.13;;;;;;;29.62;31.30;95414.66;5057800;28;20429;-79
2022/07/20 09:40:41;;;;;;;3.77;2.40;;;;;;;29.44;31.97;95402.06;5076066;28;20451;-79
2022/07/20 09:43:09;;;;;;;10.77;3.17;;;;;;;29.31;31.57;95404.97;5076068;28;20483;-80
2022/07/20 09:45:36;;;;;;;7.43;2.87;;;;;;;29.06;32.36;95404.34;5076442;28;20441;-78
2022/07/20 09:48:09;;;;;;;7.50;2.70;;;;;;;28.77;31.31;95398.72;5057484;28;20447;-79
2022/07/20 09:50:39;;;;;;;4.00;2.80;;;;;;;28.49;31.34;95409.31;5076297;28;20441;-79
2022/07/20 09:53:07;;;;;;;3.87;3.30;;;;;;;28.49;31.87;95396.66;5076015;28;20460;-79
2022/07/20 09:55:35;;;;;;;5.60;2.83;;;;;;;28.87;32.44;95399.00;5076282;28;20451;-79
2022/07/20 09:58:02;;;;;;;4.60;2.77;;;;;;;29.04;31.09;95398.34;5076385;28;20451;-78
2022/07/20 10:00:30;;;;;;;5.70;2.40;;;;;;;28.81;31.32;95397.22;5076033;28;20451;-80
2022/07/20 10:02:58;;;;;;;7.83;3.17;;;;;;;29.08;31.62;95392.25;5076115;28;20444;-79
2022/07/20 10:05:28;;;;;;;3.50;3.20;;;;;;;29.25;31.37;95387.00;5074250;28;20444;-79
2022/07/20 10:07:56;;;;;;;4.17;2.87;;;;;;;29.44;31.72;95391.25;5074974;28;20449;-79
2022/07/20 10:10:23;;;;;;;3.37;2.70;;;;;;;29.03;31.35;95380.50;5073749;28;20812;-80
2022/07/20 10:12:50;;;;;;;4.73;3.10;;;;;;;28.98;31.63;95379.31;5074753;28;20545;-79
2022/07/20 10:15:25;;;;;;;4.90;2.70;;;;;;;28.95;31.20;95368.97;5074689;28;20451;-79
2022/07/20 10:17:52;;;;;;;4.03;3.03;;;;;;;28.88;32.25;95370.13;5075013;28;20509;-79
2022/07/20 10:20:34;;;;;;;2.53;2.33;;;;;;;28.91;32.30;95359.69;5075242;28;20440;-78
2022/07/20 10:23:31;;;;;;;3.43;3.03;;;;;;;28.88;33.30;95370.94;5075104;28;20448;-79
2022/07/20 10:25:58;;;;;;;3.07;2.87;;;;;;;29.02;32.21;95365.34;5074753;28;20479;-80
2022/07/20 10:28:32;;;;;;;12.40;3.53;;;;;;;29.25;31.79;95359.97;5074660;28;20452;-79
2022/07/20 10:31:04;;;;;;;5.17;2.90;;;;;;;29.48;31.78;95364.53;5074305;28;20540;-79
2022/07/20 10:33:33;;;;;;;4.57;3.03;;;;;;;29.67;31.78;95359.84;5074421;28;20528;-79
2022/07/20 10:38:56;;;;;;;3.90;2.70;;;;;;;30.00;31.57;95345.63;5075223;28;20440;-80
2022/07/20 10:41:36;;;;;;;4.90;2.90;;;;;;;30.05;31.64;95343.88;5074398;28;20870;-82
2022/07/20 10:44:30;;;;;;;3.43;2.60;;;;;;;29.60;31.08;95341.84;5044091;28;20528;-79
2022/07/20 10:46:57;;;;;;;2.60;2.30;;;;;;;29.83;30.19;95334.75;5032916;28;20455;-79
2022/07/20 10:49:57;;;;;;;3.23;2.37;;;;;;;29.93;30.69;95329.53;5032809;28;20451;-79
2022/07/20 10:52:28;;;;;;;5.20;3.20;;;;;;;30.10;31.62;95319.66;4993246;28;20452;-79
2022/07/20 10:54:56;;;;;;;6.73;2.97;;;;;;;30.28;31.09;95318.63;4993046;28;20452;-79
2022/07/20 10:57:23;;;;;;;5.00;3.57;;;;;;;30.41;31.66;95309.38;4993154;28;20487;-79
2022/07/20 11:00:02;;;;;;;6.50;2.77;;;;;;;30.44;32.98;95317.03;4944984;28;20464;-80
2022/07/20 11:02:32;;;;;;;3.83;2.83;;;;;;;30.45;30.57;95332.22;4992980;28;20531;-79
2022/07/20 11:04:59;;;;;;;4.30;2.33;;;;;;;30.27;31.29;95313.44;4992953;28;20461;-78
2022/07/20 11:07:31;;;;;;;5.03;2.17;;;;;;;30.38;31.33;95312.59;4992843;28;20539;-79
2022/07/20 11:10:00;;;;;;;2.70;2.50;;;;;;;30.32;30.80;95310.81;4992902;28;20944;-79
2022/07/20 11:12:28;;;;;;;2.33;2.13;;;;;;;30.06;30.05;95307.63;4992556;28;20507;-80
2022/07/20 11:14:56;;;;;;;5.10;3.47;;;;;;;30.00;31.76;95303.16;4992776;28;20448;-79
2022/07/20 11:17:23;;;;;;;6.90;2.73;;;;;;;30.02;33.09;95301.03;4992891;28;20511;-79
2022/07/20 11:19:50;;;;;;;5.87;3.00;;;;;;;29.96;31.66;95307.41;4992903;28;20449;-78
2022/07/20 11:22:21;;;;;;;3.40;2.70;;;;;;;29.76;31.62;95301.59;4992472;28;20449;-79
2022/07/20 11:24:56;;;;;;;3.10;2.90;;;;;;;29.73;33.23;95302.06;5024022;28;20443;-79
2022/07/20 11:27:24;;;;;;;7.93;2.70;;;;;;;29.62;30.97;95300.22;5031500;28;20924;-79
2022/07/20 11:29:53;;;;;;;10.30;5.00;;;;;;;29.37;31.94;95289.66;5060062;28;20518;-80
2022/07/20 11:32:20;;;;;;;3.50;3.30;;;;;;;29.28;33.25;95289.19;5073430;28;20456;-78
2022/07/20 11:34:49;;;;;;;6.20;4.27;;;;;;;29.32;31.92;95295.75;5073231;28;20440;-79
2022/07/20 11:37:17;;;;;;;6.43;2.93;;;;;;;29.36;33.85;95291.53;5073136;28;20492;-79
2022/07/20 11:39:45;;;;;;;3.00;2.80;;;;;;;29.47;32.87;95285.28;5072880;28;20540;-78
2022/07/20 11:42:13;;;;;;;3.00;2.80;;;;;;;29.48;32.54;95288.81;5073467;28;20455;-78